Time;durP1;ratioP1;P1;durP2;ratioP2;P2;SDS_P1;SDS_P2;PMS_P1;PMS_P2;Temp;Humidity;BMP_temperature;BMP_pressure;BME280_temperature;BME280_humidity;BME280_pressure;Samples;Min_cycle;Max_cycle;Signal;HPM_P1;HPM_P2
2022/09/14 04:01:22;;;;;;;10.97;9.87;;;18.30;99.90;;;;;;5557263;23;20483;-64
2022/09/14 04:03:49;;;;;;;11.77;10.13;;;18.40;99.90;;;;;;4979647;28;20467;-66
2022/09/14 04:06:17;;;;;;;11.57;9.07;;;18.40;99.90;;;;;;4974956;28;20452;-65
2022/09/14 04:08:45;;;;;;;10.80;9.80;;;18.40;99.90;;;;;;4956957;28;20483;-65
2022/09/14 04:11:15;;;;;;;11.23;10.10;;;18.40;99.90;;;;;;4956707;28;20530;-65
2022/09/14 04:13:42;;;;;;;11.53;10.63;;;18.40;99.90;;;;;;4956973;28;20518;-66
2022/09/14 04:16:09;;;;;;;10.63;9.70;;;18.40;99.90;;;;;;4956737;28;20994;-65
2022/09/14 04:18:37;;;;;;;13.00;10.40;;;18.40;99.90;;;;;;4957535;28;20455;-65
2022/09/14 04:21:06;;;;;;;10.83;9.77;;;18.40;99.90;;;;;;4959118;28;20885;-66
2022/09/14 04:23:33;;;;;;;12.90;11.60;;;18.40;99.90;;;;;;4958300;28;20522;-64
2022/09/14 04:26:00;;;;;;;12.90;11.60;;;18.40;99.90;;;;;;4956806;28;20514;-65
2022/09/14 04:28:27;;;;;;;12.87;11.67;;;18.30;99.90;;;;;;4957607;28;20531;-65
2022/09/14 04:30:58;;;;;;;12.70;11.50;;;18.30;99.90;;;;;;4957145;28;20534;-64
2022/09/14 04:33:26;;;;;;;13.03;11.60;;;18.30;99.90;;;;;;4956649;28;20964;-65
2022/09/14 04:36:00;;;;;;;13.57;12.23;;;18.30;99.90;;;;;;4958129;28;20483;-65
2022/09/14 04:38:27;;;;;;;12.50;11.40;;;18.30;99.90;;;;;;4957478;28;20855;-65
2022/09/14 04:40:54;;;;;;;14.33;11.67;;;18.30;99.90;;;;;;4956503;28;20494;-64
2022/09/14 04:43:21;;;;;;;13.90;12.50;;;18.30;99.90;;;;;;4956659;28;20495;-64
2022/09/14 04:45:47;;;;;;;14.33;13.23;;;18.30;99.90;;;;;;4956372;28;20459;-65
2022/09/14 04:48:14;;;;;;;13.33;12.00;;;18.40;99.90;;;;;;4956253;28;20459;-65
2022/09/14 04:50:41;;;;;;;13.43;11.93;;;18.40;99.90;;;;;;4956173;28;20495;-64
2022/09/14 04:53:10;;;;;;;13.40;12.30;;;18.40;99.90;;;;;;4956663;28;20460;-65
2022/09/14 04:55:37;;;;;;;13.30;12.10;;;18.40;99.90;;;;;;4956196;28;20862;-64
2022/09/14 04:58:04;;;;;;;13.93;12.50;;;18.50;99.90;;;;;;4956099;28;20464;-64
2022/09/14 05:00:33;;;;;;;13.80;12.33;;;18.50;99.90;;;;;;4955939;28;20502;-65
2022/09/14 05:02:59;;;;;;;13.33;12.13;;;18.60;99.90;;;;;;4956383;28;20440;-65
2022/09/14 05:05:26;;;;;;;12.47;11.30;;;18.60;99.90;;;;;;4956124;28;20514;-64
2022/09/14 05:07:53;;;;;;;13.00;11.57;;;18.60;99.90;;;;;;4956053;28;20460;-65
2022/09/14 05:10:21;;;;;;;14.63;12.63;;;18.70;99.90;;;;;;4955811;28;20479;-65
2022/09/14 05:12:47;;;;;;;15.10;13.70;;;18.80;99.90;;;;;;4956361;28;20459;-66
2022/09/14 05:15:14;;;;;;;15.60;14.30;;;18.80;99.90;;;;;;4956131;28;20461;-65
2022/09/14 05:17:41;;;;;;;15.40;14.20;;;18.80;99.90;;;;;;4956330;28;20510;-65
2022/09/14 05:20:09;;;;;;;14.50;13.13;;;18.80;99.90;;;;;;4956058;28;20459;-65
2022/09/14 05:22:35;;;;;;;15.23;14.03;;;18.80;99.90;;;;;;4956130;28;20892;-64
2022/09/14 05:25:02;;;;;;;17.87;16.40;;;18.80;99.90;;;;;;4956005;28;20459;-64
2022/09/14 05:27:30;;;;;;;18.50;14.73;;;18.80;99.90;;;;;;4955836;28;20506;-64
2022/09/14 05:29:56;;;;;;;17.23;15.63;;;18.80;99.90;;;;;;4956211;28;20479;-65
2022/09/14 05:32:23;;;;;;;15.87;14.70;;;18.90;99.90;;;;;;4965333;28;20472;-65
2022/09/14 05:34:50;;;;;;;17.23;16.03;;;18.90;99.90;;;;;;4970797;28;20483;-65
2022/09/14 05:37:16;;;;;;;15.63;14.33;;;18.90;99.90;;;;;;4968663;28;20479;-65
2022/09/14 05:39:43;;;;;;;15.87;14.63;;;19.00;99.90;;;;;;4959754;28;20459;-65
2022/09/14 05:42:10;;;;;;;17.37;15.67;;;19.10;99.90;;;;;;4972837;28;20472;-65
2022/09/14 05:44:38;;;;;;;16.73;15.27;;;19.10;99.90;;;;;;4960251;28;20460;-65
2022/09/14 05:47:05;;;;;;;17.30;15.23;;;19.10;99.90;;;;;;4956302;28;20942;-64
2022/09/14 05:49:32;;;;;;;16.10;14.80;;;19.10;99.90;;;;;;4955848;28;20480;-65
2022/09/14 05:51:58;;;;;;;17.97;16.30;;;19.10;99.90;;;;;;4956277;28;20482;-64
2022/09/14 05:54:25;;;;;;;19.17;16.00;;;19.20;99.90;;;;;;4955850;28;20460;-65
2022/09/14 05:56:52;;;;;;;16.77;15.13;;;19.20;99.90;;;;;;4959387;28;20460;-64
2022/09/14 05:59:18;;;;;;;16.40;15.00;;;19.20;99.90;;;;;;4959255;28;20792;-65
2022/09/14 06:01:46;;;;;;;15.10;13.77;;;19.30;99.90;;;;;;4959290;28;20546;-65
2022/09/14 06:04:13;;;;;;;15.80;14.50;;;19.30;99.90;;;;;;4960852;28;20462;-64
2022/09/14 06:06:39;;;;;;;15.90;14.60;;;19.30;99.90;;;;;;4960308;28;20459;-65
2022/09/14 06:09:06;;;;;;;14.33;13.10;;;19.30;99.90;;;;;;4960199;28;20479;-65
2022/09/14 06:11:35;;;;;;;17.93;16.43;;;19.30;99.90;;;;;;4959886;28;20534;-65
2022/09/14 06:14:02;;;;;;;15.73;14.20;;;19.30;99.90;;;;;;4959947;28;20542;-65
2022/09/14 06:16:29;;;;;;;14.80;13.53;;;19.30;99.90;;;;;;4959831;28;20884;-64
2022/09/14 06:18:59;;;;;;;14.93;13.53;;;19.40;99.90;;;;;;4959779;28;20455;-64
2022/09/14 06:21:29;;;;;;;12.90;11.80;;;19.50;99.90;;;;;;4959210;28;20532;-64
2022/09/14 06:23:55;;;;;;;15.63;11.87;;;19.50;99.90;;;;;;4959229;28;20849;-67
2022/09/14 06:26:22;;;;;;;13.17;11.90;;;19.60;99.90;;;;;;4959142;28;20463;-64
2022/09/14 06:28:49;;;;;;;9.20;8.40;;;19.70;99.90;;;;;;4958907;28;20455;-66
2022/09/14 06:31:16;;;;;;;12.60;10.10;;;19.80;99.90;;;;;;4958729;28;20530;-66
2022/09/14 06:33:44;;;;;;;7.10;6.50;;;19.90;99.90;;;;;;4958958;28;20955;-66
2022/09/14 06:36:14;;;;;;;8.30;7.63;;;20.00;99.90;;;;;;4958687;28;21031;-67
2022/09/14 06:38:41;;;;;;;8.77;8.00;;;20.10;99.90;;;;;;4958694;28;20872;-66
2022/09/14 06:41:11;;;;;;;8.10;7.50;;;20.20;99.90;;;;;;4960391;28;20503;-66
2022/09/14 06:43:39;;;;;;;8.23;7.50;;;20.30;99.90;;;;;;4958664;28;20549;-66
2022/09/14 06:46:07;;;;;;;8.80;8.03;;;20.40;99.90;;;;;;4958692;28;20467;-66
2022/09/14 06:48:37;;;;;;;9.00;8.30;;;20.40;99.90;;;;;;4958643;28;20869;-66
2022/09/14 06:51:13;;;;;;;9.17;8.37;;;20.50;99.90;;;;;;4958174;28;20494;-66
2022/09/14 06:53:40;;;;;;;9.43;8.40;;;20.60;99.90;;;;;;4959078;28;20499;-65
2022/09/14 06:56:07;;;;;;;8.57;7.77;;;20.60;99.90;;;;;;4959309;28;20494;-65
2022/09/14 06:58:34;;;;;;;8.80;8.00;;;20.70;99.90;;;;;;4958672;28;20911;-65
2022/09/14 07:01:04;;;;;;;8.70;7.90;;;20.80;99.90;;;;;;4958631;28;20991;-65
2022/09/14 07:03:31;;;;;;;9.30;8.50;;;20.80;99.90;;;;;;4959443;28;20463;-65
2022/09/14 07:06:02;;;;;;;9.40;7.03;;;20.90;99.90;;;;;;4958949;28;20655;-66
2022/09/14 07:08:30;;;;;;;8.27;7.40;;;21.00;99.90;;;;;;4959253;28;20463;-66
2022/09/14 07:10:57;;;;;;;6.37;5.90;;;21.10;99.90;;;;;;4959283;28;20511;-66
2022/09/14 07:13:24;;;;;;;8.77;7.97;;;21.20;99.90;;;;;;4964954;28;20462;-65
2022/09/14 07:15:51;;;;;;;7.17;6.60;;;21.40;99.90;;;;;;4965224;28;20443;-65
2022/09/14 07:18:18;;;;;;;8.17;6.77;;;21.70;99.90;;;;;;4965631;28;20460;-65
2022/09/14 07:20:45;;;;;;;7.20;6.40;;;22.10;99.90;;;;;;4965428;28;20508;-65
2022/09/14 07:23:12;;;;;;;6.73;5.70;;;22.60;99.90;;;;;;4965271;28;20452;-66
2022/09/14 07:25:41;;;;;;;5.60;4.80;;;23.00;99.90;;;;;;4964468;28;20478;-66
2022/09/14 07:28:08;;;;;;;10.33;5.67;;;23.30;99.90;;;;;;4964818;28;20466;-66
2022/09/14 07:30:36;;;;;;;5.73;5.17;;;23.40;99.90;;;;;;4966061;28;20488;-66
2022/09/14 07:33:03;;;;;;;7.03;5.30;;;23.50;99.90;;;;;;4965352;28;20459;-66
2022/09/14 07:35:30;;;;;;;4.90;4.47;;;23.70;99.90;;;;;;4965613;28;20561;-66
2022/09/14 07:37:57;;;;;;;5.43;3.70;;;24.00;99.90;;;;;;4962619;28;20873;-66
2022/09/14 07:40:23;;;;;;;6.37;3.80;;;24.20;99.90;;;;;;4959359;28;20942;-68
2022/09/14 07:42:52;;;;;;;3.83;3.60;;;24.60;99.90;;;;;;4959065;28;21026;-67
2022/09/14 07:45:19;;;;;;;8.27;3.93;;;25.10;99.90;;;;;;4959728;28;20460;-66
2022/09/14 07:47:46;;;;;;;5.70;3.53;;;25.30;99.90;;;;;;4958804;28;20455;-66
2022/09/14 07:50:13;;;;;;;4.07;3.13;;;25.50;99.90;;;;;;4958849;28;20483;-66
2022/09/14 07:52:39;;;;;;;3.93;3.73;;;25.60;99.90;;;;;;4966372;28;20455;-66
2022/09/14 07:55:08;;;;;;;3.43;3.03;;;25.60;99.90;;;;;;4969630;28;20470;-66
2022/09/14 07:57:34;;;;;;;4.20;2.73;;;25.60;99.90;;;;;;4958911;28;20511;-66
2022/09/14 08:00:04;;;;;;;3.83;3.33;;;25.50;99.90;;;;;;4958297;28;20455;-66
2022/09/14 08:02:31;;;;;;;3.63;3.30;;;25.40;99.90;;;;;;4957781;28;20546;-66
2022/09/14 08:04:58;;;;;;;3.60;3.30;;;25.30;99.90;;;;;;4957695;28;20943;-66
2022/09/14 08:07:25;;;;;;;3.60;3.37;;;25.30;99.90;;;;;;4958302;28;21034;-66
2022/09/14 08:09:52;;;;;;;6.23;3.57;;;25.50;99.90;;;;;;4957778;28;20483;-67
2022/09/14 08:12:19;;;;;;;3.33;3.13;;;25.70;99.90;;;;;;4958589;28;20479;-66
2022/09/14 08:14:45;;;;;;;3.53;2.80;;;25.90;99.90;;;;;;4958618;28;20460;-66
2022/09/14 08:17:13;;;;;;;4.30;2.97;;;26.00;99.90;;;;;;4958360;28;20463;-66
2022/09/14 08:19:40;;;;;;;3.60;3.30;;;25.90;99.90;;;;;;4958144;28;20939;-66
2022/09/14 08:22:07;;;;;;;4.10;3.80;;;25.80;99.90;;;;;;4956991;28;20478;-66
2022/09/14 08:24:33;;;;;;;4.87;3.00;;;25.70;99.90;;;;;;4957322;28;20459;-67
2022/09/14 08:27:00;;;;;;;6.63;4.10;;;25.50;99.90;;;;;;4957397;28;20490;-66
2022/09/14 08:29:27;;;;;;;3.70;3.30;;;25.40;99.90;;;;;;4957086;28;20507;-66
2022/09/14 08:31:54;;;;;;;3.20;3.00;;;25.20;99.90;;;;;;4957187;28;20483;-66
2022/09/14 08:34:22;;;;;;;3.87;3.30;;;25.10;99.90;;;;;;4957356;28;20530;-66
2022/09/14 08:36:49;;;;;;;3.50;3.20;;;25.10;99.90;;;;;;4957138;28;20460;-65
2022/09/14 08:39:16;;;;;;;3.47;2.70;;;25.10;99.90;;;;;;4957268;28;20518;-66
2022/09/14 08:41:50;;;;;;;5.80;3.93;;;25.10;99.90;;;;;;4957038;28;20487;-65
2022/09/14 08:44:23;;;;;;;5.13;3.13;;;25.10;99.90;;;;;;4957202;28;20448;-65
2022/09/14 08:46:54;;;;;;;5.43;2.83;;;25.30;99.90;;;;;;4956694;28;20507;-65
2022/09/14 08:49:41;;;;;;;3.80;3.30;;;25.40;99.90;;;;;;4956139;28;20848;-66
2022/09/14 08:52:13;;;;;;;3.60;3.30;;;25.60;99.90;;;;;;4959580;28;20471;-65
2022/09/14 08:54:40;;;;;;;3.23;3.03;;;25.90;99.90;;;;;;4977552;28;20503;-67
2022/09/14 08:57:18;;;;;;;3.70;2.97;;;25.90;99.90;;;;;;4974287;28;20490;-65
2022/09/14 08:59:54;;;;;;;3.40;3.20;;;25.70;99.90;;;;;;4956445;28;20444;-66
2022/09/14 09:02:33;;;;;;;3.63;3.33;;;25.60;99.90;;;;;;4956162;28;20479;-66
2022/09/14 09:05:15;;;;;;;3.20;2.90;;;25.60;99.90;;;;;;4956444;28;20494;-66
2022/09/14 09:07:50;;;;;;;3.40;3.20;;;25.60;99.90;;;;;;4955969;28;20918;-66
2022/09/14 09:10:18;;;;;;;4.10;3.10;;;25.60;99.90;;;;;;4956277;28;20517;-65
2022/09/14 09:12:48;;;;;;;4.60;3.03;;;25.90;99.90;;;;;;4956289;28;20584;-64
2022/09/14 09:15:20;;;;;;;4.20;2.40;;;26.80;99.90;;;;;;4956476;28;20502;-64
2022/09/14 09:17:51;;;;;;;3.50;3.20;;;28.00;99.90;;;;;;4956255;28;20510;-65
2022/09/14 09:20:23;;;;;;;4.00;3.40;;;29.20;99.90;;;;;;4956078;28;20458;-64
2022/09/14 09:23:08;;;;;;;3.73;2.80;;;30.50;99.90;;;;;;4956261;28;20440;-65
2022/09/14 09:25:52;;;;;;;4.47;2.67;;;31.50;99.90;;;;;;4956794;28;20499;-65
2022/09/14 09:28:19;;;;;;;2.67;2.47;;;32.70;99.90;;;;;;4957777;28;20911;-65
2022/09/14 09:30:46;;;;;;;7.27;2.97;;;33.70;99.90;;;;;;4970860;28;20482;-64
2022/09/14 09:33:17;;;;;;;3.13;2.93;;;34.10;99.20;;;;;;4973768;28;20525;-64
2022/09/14 09:35:45;;;;;;;6.83;2.80;;;33.80;99.50;;;;;;4974328;28;20498;-65
2022/09/14 09:38:15;;;;;;;3.43;2.70;;;33.40;98.40;;;;;;4979236;28;20942;-65
2022/09/14 09:40:46;;;;;;;5.07;2.20;;;32.70;99.70;;;;;;4981325;28;20468;-65
2022/09/14 09:43:15;;;;;;;2.17;2.03;;;32.00;99.90;;;;;;4975455;28;20470;-64
2022/09/14 09:45:55;;;;;;;2.63;2.43;;;31.50;99.90;;;;;;4967649;28;20487;-65
2022/09/14 09:48:25;;;;;;;3.13;2.60;;;31.40;99.90;;;;;;4962618;28;20435;-65
2022/09/14 09:51:06;;;;;;;4.20;2.70;;;32.10;99.90;;;;;;4959663;28;20893;-65
2022/09/14 09:53:35;;;;;;;2.60;2.40;;;33.00;99.90;;;;;;4959762;28;20990;-65
2022/09/14 09:56:03;;;;;;;2.20;2.00;;;33.50;97.10;;;;;;4959744;28;20462;-66
2022/09/14 09:58:33;;;;;;;2.60;2.00;;;34.00;96.20;;;;;;4959495;28;20514;-65
2022/09/14 10:01:01;;;;;;;3.20;2.60;;;34.60;94.80;;;;;;4959180;28;20494;-66
2022/09/14 10:03:31;;;;;;;2.33;2.10;;;35.50;94.40;;;;;;4959279;28;20505;-64
2022/09/14 10:06:08;;;;;;;3.50;2.27;;;35.60;92.80;;;;;;4959296;28;20494;-65
2022/09/14 10:08:41;;;;;;;5.00;2.30;;;35.90;91.20;;;;;;4959158;28;20443;-65
2022/09/14 10:11:29;;;;;;;3.67;2.50;;;36.20;88.90;;;;;;4959061;28;20490;-64
2022/09/14 10:13:56;;;;;;;2.80;2.20;;;36.30;86.30;;;;;;4959611;28;20455;-65
2022/09/14 10:16:25;;;;;;;3.57;2.70;;;35.70;85.80;;;;;;4959819;28;20802;-65
2022/09/14 10:18:53;;;;;;;3.60;2.50;;;35.10;89.10;;;;;;4959369;28;20800;-65
2022/09/14 10:21:22;;;;;;;3.60;2.57;;;34.30;91.40;;;;;;4959651;28;20482;-65
2022/09/14 10:24:05;;;;;;;2.90;2.57;;;33.50;93.60;;;;;;4959568;28;21013;-65
2022/09/14 10:26:34;;;;;;;2.13;1.97;;;33.10;94.20;;;;;;4967749;28;20446;-65
2022/09/14 10:29:29;;;;;;;7.97;2.67;;;33.10;95.90;;;;;;4973432;28;20447;-65
2022/09/14 10:32:00;;;;;;;1.90;1.80;;;33.30;94.40;;;;;;4959987;28;20486;-64
2022/09/14 10:34:27;;;;;;;3.80;2.10;;;33.50;94.80;;;;;;4959294;28;20493;-65
2022/09/14 10:37:07;;;;;;;2.53;2.33;;;33.90;92.80;;;;;;4958994;28;20455;-66
2022/09/14 10:39:42;;;;;;;3.87;2.70;;;34.20;91.70;;;;;;4961308;28;20855;-65
2022/09/14 10:42:21;;;;;;;2.90;2.30;;;34.10;91.60;;;;;;4958903;28;20534;-64
2022/09/14 10:45:08;;;;;;;2.50;2.20;;;34.10;92.80;;;;;;4959273;28;20991;-66
2022/09/14 10:47:52;;;;;;;2.40;2.20;;;33.90;91.40;;;;;;4959138;28;20475;-64
2022/09/14 10:50:28;;;;;;;3.10;1.70;;;33.80;91.10;;;;;;4958623;28;20502;-65
2022/09/14 10:53:09;;;;;;;5.30;2.57;;;33.40;91.40;;;;;;4958701;28;20843;-64
2022/09/14 10:55:42;;;;;;;2.27;2.17;;;33.10;93.00;;;;;;4958783;28;20907;-66
2022/09/14 10:58:23;;;;;;;2.60;2.40;;;32.90;92.40;;;;;;4959115;28;20439;-64
2022/09/14 11:01:02;;;;;;;5.50;2.60;;;32.70;92.60;;;;;;4958655;28;21034;-65
2022/09/14 11:03:41;;;;;;;2.90;2.67;;;32.30;94.40;;;;;;4959111;28;20535;-64
2022/09/14 11:06:18;;;;;;;3.80;2.20;;;32.00;94.80;;;;;;4959508;28;20447;-64
2022/09/14 11:08:53;;;;;;;2.63;2.20;;;31.60;95.40;;;;;;4959794;28;20459;-65
2022/09/14 11:11:29;;;;;;;4.53;2.27;;;31.40;96.90;;;;;;4959796;28;20541;-65
2022/09/14 11:14:07;;;;;;;10.10;2.33;;;31.10;94.10;;;;;;4960252;28;20887;-64
2022/09/14 11:17:03;;;;;;;2.60;2.40;;;30.80;93.90;;;;;;4961220;28;20444;-65
2022/09/14 11:19:40;;;;;;;5.00;2.27;;;30.60;96.10;;;;;;4961183;28;20459;-64
2022/09/14 11:22:13;;;;;;;2.33;2.10;;;30.50;96.50;;;;;;4959552;28;20480;-66
2022/09/14 11:24:45;;;;;;;3.73;2.50;;;30.70;97.60;;;;;;4959372;28;20799;-65
2022/09/14 11:27:18;;;;;;;3.17;2.60;;;31.00;99.10;;;;;;4961754;28;20452;-64
2022/09/14 11:29:49;;;;;;;2.40;2.30;;;31.20;96.80;;;;;;4962797;28;20447;-65
2022/09/14 11:32:21;;;;;;;1.97;1.87;;;31.30;98.20;;;;;;4970074;28;20483;-65
2022/09/14 11:34:54;;;;;;;2.20;1.67;;;31.40;96.50;;;;;;4974035;28;20519;-65
2022/09/14 11:37:29;;;;;;;3.83;2.73;;;31.70;96.00;;;;;;4974347;28;20468;-66
2022/09/14 11:40:05;;;;;;;2.83;2.00;;;31.80;96.40;;;;;;4973900;28;20490;-66
2022/09/14 11:42:35;;;;;;;4.43;2.07;;;31.70;95.20;;;;;;4967765;28;20550;-65
2022/09/14 11:45:06;;;;;;;2.97;1.93;;;31.70;94.40;;;;;;4960901;28;20448;-65
2022/09/14 11:47:38;;;;;;;2.10;1.90;;;31.60;93.60;;;;;;4960675;28;20452;-66
2022/09/14 11:50:14;;;;;;;2.40;2.10;;;31.40;92.50;;;;;;4958979;28;20439;-65
2022/09/14 11:52:40;;;;;;;2.37;2.20;;;31.30;92.80;;;;;;4958098;28;20490;-65
2022/09/14 11:55:15;;;;;;;2.60;2.10;;;31.30;93.90;;;;;;4958966;28;20460;-66
2022/09/14 11:57:45;;;;;;;1.80;1.70;;;31.10;93.30;;;;;;4958802;28;20494;-65
2022/09/14 12:01:00;;;;;;;2.50;2.30;;;30.90;93.80;;;;;;4957831;28;20460;-66
2022/09/14 12:03:51;;;;;;;2.40;1.73;;;30.80;94.20;;;;;;4958106;28;20447;-65
2022/09/14 12:06:44;;;;;;;4.17;2.17;;;30.50;94.50;;;;;;4958120;28;20443;-66
2022/09/14 12:09:39;;;;;;;2.67;2.33;;;30.40;95.80;;;;;;4957813;28;20511;-65
2022/09/14 12:12:28;;;;;;;2.93;2.40;;;30.20;95.40;;;;;;4957510;28;21045;-66
2022/09/14 12:15:00;;;;;;;3.30;2.40;;;30.00;95.80;;;;;;4957381;28;20945;-66
2022/09/14 12:17:30;;;;;;;2.50;2.30;;;29.70;96.30;;;;;;4957708;28;20530;-65
2022/09/14 12:20:29;;;;;;;2.73;2.50;;;29.40;96.20;;;;;;4963746;28;20491;-65
2022/09/14 12:23:17;;;;;;;2.60;2.40;;;29.00;97.00;;;;;;4969274;28;20447;-65
2022/09/14 12:26:06;;;;;;;4.33;2.07;;;28.70;98.30;;;;;;4967906;28;20475;-66
2022/09/14 12:28:46;;;;;;;3.63;2.27;;;28.50;98.10;;;;;;4958589;28;20530;-65
2022/09/14 12:31:31;;;;;;;6.17;2.47;;;28.10;99.50;;;;;;4959216;28;20483;-65
2022/09/14 12:34:26;;;;;;;2.37;2.17;;;27.90;99.70;;;;;;4959174;28;20543;-65
2022/09/14 12:37:13;;;;;;;4.00;2.73;;;27.70;99.90;;;;;;4958145;28;20436;-65
2022/09/14 12:40:33;;;;;;;4.17;2.37;;;27.60;99.90;;;;;;4958441;28;20458;-65
2022/09/14 12:43:46;;;;;;;2.47;2.27;;;27.50;99.90;;;;;;4958674;28;20432;-65
2022/09/14 12:46:38;;;;;;;3.57;2.53;;;27.20;99.90;;;;;;4958682;28;20783;-65
2022/09/14 12:49:27;;;;;;;5.10;2.80;;;27.10;99.90;;;;;;4957917;28;20436;-64
2022/09/14 12:51:55;;;;;;;2.80;2.03;;;27.00;99.90;;;;;;4956618;28;20487;-66
2022/09/14 12:54:31;;;;;;;2.73;2.53;;;26.90;99.90;;;;;;4956336;28;20462;-66
2022/09/14 12:57:16;;;;;;;3.93;3.60;;;26.80;99.90;;;;;;4956567;28;20448;-66
2022/09/14 12:59:52;;;;;;;5.57;3.07;;;26.60;99.90;;;;;;4957049;28;20444;-66
2022/09/14 13:02:42;;;;;;;6.23;2.90;;;26.40;99.90;;;;;;4956660;28;20478;-66
2022/09/14 13:05:14;;;;;;;3.70;3.40;;;26.00;99.90;;;;;;4956183;28;20448;-67
2022/09/14 13:07:41;;;;;;;5.20;3.13;;;25.60;99.90;;;;;;4956733;28;20539;-66
2022/09/14 13:10:19;;;;;;;4.90;3.20;;;25.20;99.90;;;;;;4956304;28;20514;-64
2022/09/14 13:12:48;;;;;;;4.07;3.10;;;24.80;99.90;;;;;;4956001;28;20558;-64
2022/09/14 13:15:20;;;;;;;4.37;3.10;;;24.40;99.90;;;;;;4956148;28;20459;-64
2022/09/14 13:17:57;;;;;;;3.77;2.93;;;24.00;99.90;;;;;;4955990;28;20467;-63
2022/09/14 13:20:24;;;;;;;3.33;3.13;;;23.70;99.90;;;;;;4955878;28;20482;-64
2022/09/14 13:22:51;;;;;;;4.23;3.03;;;23.40;99.90;;;;;;4955872;28;20456;-65
2022/09/14 13:25:31;;;;;;;4.30;2.70;;;23.20;99.90;;;;;;4956001;28;20459;-64
2022/09/14 13:28:00;;;;;;;2.70;2.50;;;22.90;99.90;;;;;;4956457;28;20444;-64
2022/09/14 13:30:28;;;;;;;3.03;2.80;;;22.70;99.90;;;;;;4955775;28;20542;-64
2022/09/14 13:32:57;;;;;;;3.03;2.77;;;22.60;99.90;;;;;;4955370;28;20917;-65
2022/09/14 13:35:30;;;;;;;3.10;2.73;;;22.50;99.90;;;;;;4955595;28;20877;-64
2022/09/14 13:37:58;;;;;;;3.23;2.93;;;22.40;99.90;;;;;;4955377;28;20790;-64
2022/09/14 13:40:29;;;;;;;5.30;2.53;;;22.40;99.90;;;;;;4955673;28;20492;-65
2022/09/14 13:42:58;;;;;;;2.70;2.50;;;22.40;99.90;;;;;;4956221;28;20510;-64
2022/09/14 13:45:25;;;;;;;5.03;2.20;;;22.40;99.90;;;;;;4955956;28;20856;-64
2022/09/14 13:47:53;;;;;;;2.57;2.37;;;22.40;99.90;;;;;;4955822;28;20510;-64
2022/09/14 13:50:24;;;;;;;2.40;2.20;;;22.30;99.90;;;;;;4955434;28;20459;-64
2022/09/14 13:52:52;;;;;;;2.83;2.03;;;22.30;99.90;;;;;;4955392;28;20463;-64
2022/09/14 13:55:28;;;;;;;2.17;2.00;;;22.30;99.90;;;;;;4955847;28;20470;-67
2022/09/14 13:58:20;;;;;;;4.17;2.30;;;22.20;99.90;;;;;;4955584;28;20443;-66
2022/09/14 14:00:54;;;;;;;2.50;2.30;;;22.20;99.90;;;;;;4955751;28;20534;-66
2022/09/14 14:03:27;;;;;;;2.43;2.33;;;22.20;99.90;;;;;;4955586;28;20436;-67
2022/09/14 14:05:54;;;;;;;2.60;1.80;;;22.20;99.90;;;;;;4955698;28;20499;-67
2022/09/14 14:08:30;;;;;;;3.53;1.93;;;22.20;99.90;;;;;;4955430;28;20514;-67
2022/09/14 14:11:00;;;;;;;3.60;1.80;;;22.20;99.90;;;;;;4954926;28;20993;-67
2022/09/14 14:13:28;;;;;;;1.53;1.43;;;22.20;99.90;;;;;;4955291;28;20519;-66
2022/09/14 14:16:10;;;;;;;1.70;1.60;;;22.20;99.90;;;;;;4956022;28;20467;-66
2022/09/14 14:18:40;;;;;;;14.33;2.93;;;22.30;99.90;;;;;;4959032;28;20452;-67
2022/09/14 14:21:16;;;;;;;1.73;1.43;;;22.30;99.90;;;;;;4959446;28;20558;-68
2022/09/14 14:23:43;;;;;;;1.80;1.70;;;22.30;99.90;;;;;;4958650;28;21013;-68
2022/09/14 14:26:15;;;;;;;2.53;1.40;;;22.20;99.90;;;;;;4958924;28;20463;-68
2022/09/14 14:28:42;;;;;;;1.83;1.60;;;22.20;99.90;;;;;;4959145;28;20853;-67
2022/09/14 14:31:14;;;;;;;1.57;1.47;;;22.20;99.90;;;;;;4959750;28;20534;-67
2022/09/14 14:33:45;;;;;;;1.77;1.63;;;22.10;99.90;;;;;;4959092;28;20975;-66
2022/09/14 14:36:13;;;;;;;1.57;1.47;;;22.20;99.90;;;;;;4960670;28;20504;-66
2022/09/14 14:38:41;;;;;;;2.67;1.60;;;22.20;99.90;;;;;;4958755;28;20943;-68
2022/09/14 14:41:15;;;;;;;2.27;1.83;;;22.20;99.90;;;;;;4959001;28;20486;-67
2022/09/14 14:43:44;;;;;;;1.83;1.40;;;22.20;99.90;;;;;;4977711;28;20920;-66
2022/09/14 14:46:12;;;;;;;3.80;1.90;;;22.20;99.90;;;;;;4979209;28;20444;-67
2022/09/14 14:48:39;;;;;;;1.80;1.70;;;22.20;99.90;;;;;;4978768;28;20472;-67
2022/09/14 14:51:06;;;;;;;2.53;1.60;;;22.20;99.90;;;;;;4962100;28;20523;-67
2022/09/14 14:53:33;;;;;;;5.10;1.80;;;22.10;99.90;;;;;;4958837;28;20482;-66
2022/09/14 14:55:59;;;;;;;1.93;1.83;;;22.00;99.90;;;;;;4958639;28;20527;-65
2022/09/14 14:58:28;;;;;;;1.57;1.13;;;21.90;99.90;;;;;;4959858;28;20486;-65
2022/09/14 15:00:54;;;;;;;2.20;1.83;;;21.80;99.90;;;;;;4958362;28;20580;-66
2022/09/14 15:03:21;;;;;;;1.93;1.33;;;21.70;99.90;;;;;;4958653;28;20458;-66
2022/09/14 15:05:49;;;;;;;4.40;1.60;;;21.60;99.90;;;;;;4958031;28;20496;-66
2022/09/14 15:08:18;;;;;;;1.90;1.20;;;21.50;99.90;;;;;;4958912;28;20455;-66
2022/09/14 15:10:45;;;;;;;2.07;1.97;;;21.50;99.90;;;;;;4958368;28;20480;-66
2022/09/14 15:13:13;;;;;;;2.30;1.70;;;21.50;99.90;;;;;;4957965;28;20909;-67
2022/09/14 15:15:42;;;;;;;1.50;1.40;;;21.50;99.90;;;;;;4957970;28;20459;-66
2022/09/14 15:18:09;;;;;;;4.60;2.20;;;21.50;99.90;;;;;;4957996;28;20547;-66
2022/09/14 15:20:35;;;;;;;2.97;1.60;;;21.50;99.90;;;;;;4957805;28;20511;-67
2022/09/14 15:23:02;;;;;;;1.90;1.80;;;21.50;99.90;;;;;;4957693;28;20448;-66
2022/09/14 15:25:29;;;;;;;2.20;1.57;;;21.60;99.90;;;;;;4957681;28;20451;-66
2022/09/14 15:27:56;;;;;;;1.90;1.47;;;21.50;99.90;;;;;;4957521;28;20460;-66
2022/09/14 15:30:23;;;;;;;1.83;1.50;;;21.50;99.90;;;;;;4957394;28;20955;-67
2022/09/14 15:32:51;;;;;;;2.00;1.57;;;21.50;99.90;;;;;;4958159;28;20510;-66
2022/09/14 15:35:17;;;;;;;1.60;1.30;;;21.50;99.90;;;;;;4957685;28;20491;-65
2022/09/14 15:37:46;;;;;;;1.10;1.10;;;21.50;99.90;;;;;;4957954;28;20448;-63
2022/09/14 15:40:12;;;;;;;1.70;1.60;;;21.50;99.90;;;;;;4958166;28;20491;-64
2022/09/14 15:42:39;;;;;;;1.90;1.53;;;21.50;99.90;;;;;;4958575;28;20480;-63
2022/09/14 15:45:06;;;;;;;1.70;1.60;;;21.60;99.90;;;;;;4957562;28;20463;-63
2022/09/14 15:47:33;;;;;;;3.40;1.60;;;21.70;99.90;;;;;;4958855;28;20853;-63
2022/09/14 15:50:01;;;;;;;1.37;1.37;;;21.80;99.90;;;;;;4957832;28;20948;-63
2022/09/14 15:52:28;;;;;;;4.43;1.50;;;22.00;99.90;;;;;;4957588;28;20483;-64
2022/09/14 15:54:54;;;;;;;2.00;1.53;;;22.00;99.90;;;;;;4957440;28;20464;-63
2022/09/14 15:57:21;;;;;;;2.00;1.50;;;22.00;99.90;;;;;;4957231;28;20836;-63
2022/09/14 15:59:48;;;;;;;2.70;1.77;;;22.00;99.90;;;;;;4957335;28;20456;-64
2022/09/14 16:02:15;;;;;;;1.60;1.50;;;22.00;99.90;;;;;;4957240;28;20479;-63
2022/09/14 16:04:42;;;;;;;2.00;1.50;;;22.00;99.90;;;;;;4957109;28;20487;-63
2022/09/14 16:07:10;;;;;;;1.03;0.97;;;21.90;99.90;;;;;;4956857;28;20509;-64
2022/09/14 16:09:38;;;;;;;2.30;1.20;;;21.90;99.90;;;;;;4957890;28;20515;-63
2022/09/14 16:12:05;;;;;;;1.37;1.00;;;21.90;99.90;;;;;;4956603;28;20486;-64
2022/09/14 16:14:32;;;;;;;1.30;1.20;;;21.90;99.90;;;;;;4956888;28;20482;-64
2022/09/14 16:16:59;;;;;;;1.30;1.30;;;21.80;99.90;;;;;;4956759;28;20455;-64
2022/09/14 16:19:27;;;;;;;1.53;1.20;;;21.80;99.90;;;;;;4956711;28;20467;-63
2022/09/14 16:21:53;;;;;;;1.37;1.27;;;21.80;99.90;;;;;;4956488;28;20480;-63
2022/09/14 16:24:22;;;;;;;1.53;1.40;;;21.80;99.90;;;;;;4956751;28;20530;-63
2022/09/14 16:26:49;;;;;;;1.30;1.30;;;21.70;99.90;;;;;;4956616;28;20510;-64
2022/09/14 16:29:19;;;;;;;1.20;1.17;;;21.70;99.90;;;;;;4956596;28;20450;-64
2022/09/14 16:31:47;;;;;;;1.60;1.40;;;21.70;99.90;;;;;;4956428;28;20487;-65
2022/09/14 16:34:18;;;;;;;4.30;1.20;;;21.70;99.90;;;;;;4956703;28;20486;-65
2022/09/14 16:36:44;;;;;;;1.17;1.17;;;21.70;99.90;;;;;;4956717;28;20522;-65
2022/09/14 16:39:13;;;;;;;2.30;1.30;;;21.70;99.90;;;;;;4955765;28;20962;-65
2022/09/14 16:41:42;;;;;;;2.97;1.63;;;21.70;99.90;;;;;;4956324;28;20476;-67
2022/09/14 16:44:12;;;;;;;3.10;2.90;;;21.60;99.90;;;;;;4956351;28;20455;-64
2022/09/14 16:46:38;;;;;;;2.00;1.90;;;21.60;99.90;;;;;;4956653;28;20460;-65
2022/09/14 16:49:06;;;;;;;2.00;1.50;;;21.60;99.90;;;;;;4956168;28;20459;-65
2022/09/14 16:51:33;;;;;;;2.00;1.90;;;21.70;99.90;;;;;;4956173;28;20480;-65
2022/09/14 16:54:00;;;;;;;2.07;1.40;;;21.70;99.90;;;;;;4956334;28;20539;-64
2022/09/14 16:56:29;;;;;;;1.23;1.20;;;21.60;99.90;;;;;;4956661;28;20459;-67
2022/09/14 16:58:59;;;;;;;2.97;1.63;;;21.60;99.90;;;;;;4957208;28;20466;-66
2022/09/14 17:01:28;;;;;;;1.93;1.83;;;21.50;99.90;;;;;;4956788;28;20491;-65
2022/09/14 17:03:57;;;;;;;2.53;1.80;;;21.50;99.90;;;;;;4958477;28;20479;-64